createdAt,value
2019-05-26T00:01:56.366Z,10.95
2019-05-26T00:04:23.095Z,11.18
2019-05-26T00:06:50.022Z,10.55
2019-05-26T00:09:16.842Z,12.50
2019-05-26T00:11:43.546Z,11.20
2019-05-26T00:14:10.360Z,11.18
2019-05-26T00:16:37.075Z,10.93
2019-05-26T00:19:03.982Z,10.25
2019-05-26T00:21:30.782Z,10.23
2019-05-26T00:23:57.562Z,10.55
2019-05-26T00:26:24.270Z,9.78
2019-05-26T00:28:51.166Z,10.45
2019-05-26T00:31:18.025Z,10.75
2019-05-26T00:33:44.797Z,10.28
2019-05-26T00:36:11.626Z,10.28
2019-05-26T00:38:38.321Z,10.23
2019-05-26T00:41:05.143Z,9.68
2019-05-26T00:43:31.861Z,9.93
2019-05-26T00:45:59.646Z,9.78
2019-05-26T00:48:26.433Z,10.53
2019-05-26T00:50:53.191Z,10.08
2019-05-26T00:53:20.005Z,9.85
2019-05-26T00:55:46.998Z,10.23
2019-05-26T00:58:13.769Z,9.95
2019-05-26T01:00:41.611Z,11.48
2019-05-26T01:03:09.999Z,10.50
2019-05-26T01:05:37.062Z,10.30
2019-05-26T01:08:06.725Z,12.07
2019-05-26T01:10:35.581Z,11.88
2019-05-26T01:13:03.741Z,11.12
2019-05-26T01:15:30.631Z,10.63
2019-05-26T01:17:57.710Z,11.40
2019-05-26T01:20:24.581Z,11.05
2019-05-26T01:22:53.807Z,12.98
2019-05-26T01:25:20.074Z,12.10
2019-05-26T01:27:47.902Z,12.13
2019-05-26T01:30:15.100Z,11.63
2019-05-26T01:32:41.802Z,11.40
2019-05-26T01:35:08.782Z,11.43
2019-05-26T01:37:37.273Z,11.35
2019-05-26T01:40:06.373Z,11.40
2019-05-26T01:42:33.225Z,11.28
2019-05-26T01:45:00.019Z,10.68
2019-05-26T01:47:27.920Z,10.65
2019-05-26T01:49:54.693Z,12.20
2019-05-26T01:52:21.403Z,11.60
2019-05-26T01:54:48.197Z,10.72
2019-05-26T01:57:14.997Z,10.75
2019-05-26T01:59:41.974Z,10.10
2019-05-26T02:02:08.818Z,10.90
2019-05-26T02:04:35.596Z,9.88
2019-05-26T02:07:02.339Z,10.20
2019-05-26T02:09:29.115Z,9.83
2019-05-26T02:11:56.010Z,10.10
2019-05-26T02:14:23.858Z,10.28
2019-05-26T02:16:50.568Z,10.53
2019-05-26T02:19:17.345Z,9.78
2019-05-26T02:21:44.145Z,10.00
2019-05-26T02:24:10.860Z,10.38
2019-05-26T02:26:37.662Z,10.75
2019-05-26T02:29:04.603Z,10.50
2019-05-26T02:31:31.548Z,10.80
2019-05-26T02:33:58.507Z,10.45
2019-05-26T02:36:25.345Z,10.80
2019-05-26T02:39:01.777Z,10.72
2019-05-26T02:41:21.075Z,10.68
2019-05-26T02:43:47.868Z,11.50
2019-05-26T02:46:14.582Z,10.58
2019-05-26T02:48:41.395Z,10.55
2019-05-26T02:51:08.113Z,10.98
2019-05-26T02:53:34.868Z,10.63
2019-05-26T02:56:01.630Z,10.10
2019-05-26T02:58:28.328Z,10.15
2019-05-26T03:00:54.991Z,10.30
2019-05-26T03:03:22.207Z,10.35
2019-05-26T03:05:50.216Z,9.58
2019-05-26T03:08:17.293Z,10.03
2019-05-26T03:10:44.356Z,10.20
2019-05-26T03:13:15.096Z,10.35
2019-05-26T03:15:43.524Z,10.25
2019-05-26T03:18:10.279Z,10.55
2019-05-26T03:20:39.407Z,10.48
2019-05-26T03:23:07.640Z,10.45
2019-05-26T03:25:36.462Z,10.32
2019-05-26T03:28:06.626Z,9.75
2019-05-26T03:30:34.223Z,10.63
2019-05-26T03:33:01.198Z,10.18
2019-05-26T03:35:28.349Z,9.58
2019-05-26T03:37:55.060Z,10.03
2019-05-26T03:40:21.974Z,9.88
2019-05-26T03:42:48.657Z,10.08
2019-05-26T03:45:39.781Z,10.20
2019-05-26T03:48:06.545Z,9.95
2019-05-26T03:50:33.271Z,9.40
2019-05-26T03:53:01.136Z,9.55
2019-05-26T03:55:27.938Z,8.08
2019-05-26T03:57:54.654Z,8.58
2019-05-26T04:00:21.614Z,7.92
2019-05-26T04:02:48.318Z,8.73
2019-05-26T04:05:15.129Z,8.73
2019-05-26T04:07:42.154Z,8.15
2019-05-26T04:10:09.328Z,9.83
2019-05-26T04:12:36.036Z,8.93
2019-05-26T04:15:05.790Z,8.73
2019-05-26T04:17:32.533Z,7.97
2019-05-26T04:19:59.317Z,8.03
2019-05-26T04:22:26.069Z,7.60
2019-05-26T04:24:52.843Z,7.95
2019-05-26T04:27:19.748Z,8.65
2019-05-26T04:29:47.630Z,8.50
2019-05-26T04:32:14.419Z,9.48
2019-05-26T04:34:41.111Z,8.90
2019-05-26T04:37:07.901Z,8.10
2019-05-26T04:39:34.618Z,8.45
2019-05-26T04:42:02.081Z,7.53
2019-05-26T04:44:29.964Z,8.45
2019-05-26T04:46:56.680Z,8.30
2019-05-26T04:49:24.108Z,8.58
2019-05-26T04:51:50.946Z,8.00
2019-05-26T04:54:17.618Z,7.40
2019-05-26T04:56:44.497Z,7.55
2019-05-26T04:59:11.257Z,7.33
2019-05-26T05:01:37.974Z,7.12
2019-05-26T05:04:04.790Z,7.40
2019-05-26T05:06:31.504Z,7.90
2019-05-26T05:08:58.272Z,7.15
2019-05-26T05:11:25.093Z,7.28
2019-05-26T05:13:51.817Z,6.85
2019-05-26T05:16:18.593Z,7.05
2019-05-26T05:18:45.364Z,7.85
2019-05-26T05:21:12.268Z,7.55
2019-05-26T05:23:39.014Z,6.85
2019-05-26T05:26:05.783Z,7.50
2019-05-26T05:28:32.566Z,5.78
2019-05-26T05:30:59.305Z,5.70
2019-05-26T05:33:25.993Z,5.10
2019-05-26T05:35:54.010Z,5.50
2019-05-26T05:38:20.781Z,5.22
2019-05-26T05:40:58.868Z,5.47
2019-05-26T05:43:16.212Z,8.45
2019-05-26T05:45:43.056Z,5.55
2019-05-26T05:48:09.777Z,5.60
2019-05-26T05:50:39.159Z,5.10
2019-05-26T05:53:05.328Z,10.05
2019-05-26T05:55:32.016Z,6.12
2019-05-26T05:57:58.690Z,7.12
2019-05-26T06:00:25.450Z,5.85
2019-05-26T06:02:52.271Z,8.90
2019-05-26T06:05:18.991Z,5.60
2019-05-26T06:07:45.854Z,7.05
2019-05-26T06:10:12.756Z,4.67
2019-05-26T06:12:39.434Z,5.17
2019-05-26T06:15:08.896Z,5.45
2019-05-26T06:17:36.589Z,5.22
2019-05-26T06:20:05.654Z,4.95
2019-05-26T06:22:32.493Z,4.72
2019-05-26T06:24:59.200Z,5.20
2019-05-26T06:27:25.916Z,4.90
2019-05-26T06:29:58.740Z,4.87
2019-05-26T06:32:21.296Z,5.33
2019-05-26T06:34:48.162Z,4.80
2019-05-26T06:37:14.961Z,4.70
2019-05-26T06:39:41.741Z,4.87
2019-05-26T06:42:08.513Z,5.70
2019-05-26T06:44:52.024Z,4.70
2019-05-26T06:47:05.183Z,4.72
2019-05-26T06:49:31.950Z,4.95
2019-05-26T06:51:58.766Z,4.40
2019-05-26T06:54:25.485Z,4.80
2019-05-26T06:56:52.334Z,4.28
2019-05-26T06:59:19.139Z,4.85
2019-05-26T07:01:45.864Z,4.87
2019-05-26T07:04:12.708Z,5.20
2019-05-26T07:06:39.435Z,5.10
2019-05-26T07:09:06.444Z,6.33
2019-05-26T07:11:47.125Z,5.20
2019-05-26T07:14:02.166Z,4.72
2019-05-26T07:16:38.255Z,5.12
2019-05-26T07:18:58.532Z,5.00
2019-05-26T07:21:25.234Z,6.00
2019-05-26T07:23:52.112Z,5.40
2019-05-26T07:26:18.915Z,4.67
2019-05-26T07:28:45.614Z,4.62
2019-05-26T07:31:12.455Z,4.90
2019-05-26T07:33:39.225Z,4.87
2019-05-26T07:36:05.900Z,4.90
2019-05-26T07:38:33.746Z,4.97
2019-05-26T07:41:00.441Z,4.42
2019-05-26T07:43:28.094Z,6.50
2019-05-26T07:45:55.526Z,7.12
2019-05-26T07:48:22.258Z,7.30
2019-05-26T07:50:48.973Z,4.47
2019-05-26T07:53:15.743Z,6.78
2019-05-26T07:55:42.630Z,4.30
2019-05-26T07:58:09.394Z,5.72
2019-05-26T08:00:36.223Z,4.40
2019-05-26T08:03:03.139Z,4.80
2019-05-26T08:05:29.824Z,4.28
2019-05-26T08:08:11.596Z,4.70
2019-05-26T08:10:25.212Z,4.55
2019-05-26T08:12:51.981Z,4.25
2019-05-26T08:15:19.218Z,4.95
2019-05-26T08:17:45.971Z,4.60
2019-05-26T08:20:13.470Z,4.45
2019-05-26T08:22:40.339Z,4.75
2019-05-26T08:25:07.827Z,4.42
2019-05-26T08:27:34.945Z,4.42
2019-05-26T08:30:01.816Z,4.12
2019-05-26T08:32:28.808Z,4.33
2019-05-26T08:34:55.498Z,4.47
2019-05-26T08:37:22.607Z,4.25
2019-05-26T08:39:49.396Z,4.42
2019-05-26T08:42:26.946Z,3.95
2019-05-26T08:44:44.847Z,4.50
2019-05-26T08:47:11.606Z,4.28
2019-05-26T08:49:38.295Z,4.47
2019-05-26T08:52:05.051Z,4.50
2019-05-26T08:54:31.840Z,4.60
2019-05-26T08:56:58.825Z,4.83
2019-05-26T08:59:25.614Z,4.17
2019-05-26T09:01:52.281Z,4.50
2019-05-26T09:04:18.964Z,4.28
2019-05-26T09:06:45.917Z,4.20
2019-05-26T09:09:13.775Z,4.15
2019-05-26T09:11:40.722Z,5.97
2019-05-26T09:14:07.593Z,4.00
2019-05-26T09:16:34.130Z,3.92
2019-05-26T09:19:01.253Z,3.85
2019-05-26T09:21:28.338Z,3.80
2019-05-26T09:23:55.147Z,3.77
2019-05-26T09:26:21.911Z,3.98
2019-05-26T09:28:48.694Z,4.30
2019-05-26T09:31:15.375Z,4.25
2019-05-26T09:33:42.075Z,5.78
2019-05-26T09:36:08.921Z,4.62
2019-05-26T09:38:35.691Z,3.92
2019-05-26T09:41:02.707Z,4.17
2019-05-26T09:43:29.495Z,4.05
2019-05-26T09:45:56.178Z,3.90
2019-05-26T09:48:22.927Z,3.95
2019-05-26T09:50:49.738Z,3.85
2019-05-26T09:53:16.467Z,4.00
2019-05-26T09:55:44.270Z,4.17
2019-05-26T09:58:11.106Z,4.92
2019-05-26T10:00:38.018Z,8.00
2019-05-26T10:03:04.804Z,4.50
2019-05-26T10:05:31.650Z,4.10
2019-05-26T10:07:58.515Z,3.90
2019-05-26T10:10:25.213Z,3.17
2019-05-26T10:12:52.030Z,4.08
2019-05-26T10:15:19.014Z,3.45
2019-05-26T10:17:45.714Z,3.33
2019-05-26T10:20:12.685Z,3.60
2019-05-26T10:22:39.452Z,3.58
2019-05-26T10:25:06.513Z,3.60
2019-05-26T10:27:33.217Z,3.20
2019-05-26T10:30:00.009Z,3.25
2019-05-26T10:32:26.791Z,3.55
2019-05-26T10:34:53.552Z,3.40
2019-05-26T10:37:20.330Z,3.20
2019-05-26T10:39:47.367Z,3.30
2019-05-26T10:42:14.329Z,3.00
2019-05-26T10:44:41.088Z,3.50
2019-05-26T10:47:07.967Z,3.33
2019-05-26T10:49:35.866Z,3.67
2019-05-26T10:52:02.608Z,3.40
2019-05-26T10:54:29.378Z,3.42
2019-05-26T10:56:56.444Z,3.20
2019-05-26T10:59:24.296Z,3.27
2019-05-26T11:01:51.090Z,3.30
2019-05-26T11:04:17.836Z,3.58
2019-05-26T11:06:44.767Z,3.67
2019-05-26T11:09:11.456Z,3.40
2019-05-26T11:11:38.148Z,3.40
2019-05-26T11:14:04.960Z,3.08
2019-05-26T11:16:31.725Z,3.80
2019-05-26T11:18:58.471Z,3.22
2019-05-26T11:21:25.191Z,3.40
2019-05-26T11:23:51.875Z,3.27
2019-05-26T11:26:18.902Z,3.37
2019-05-26T11:28:45.569Z,3.00
2019-05-26T11:31:12.553Z,3.25
2019-05-26T11:33:39.248Z,3.33
2019-05-26T11:36:05.986Z,3.37
2019-05-26T11:38:33.789Z,3.62
2019-05-26T11:41:00.826Z,3.62
2019-05-26T11:43:27.631Z,3.25
2019-05-26T11:45:54.348Z,3.45
2019-05-26T11:48:21.120Z,3.70
2019-05-26T11:50:47.868Z,3.72
2019-05-26T11:53:14.549Z,3.55
2019-05-26T11:55:42.472Z,4.20
2019-05-26T11:58:09.343Z,4.00
2019-05-26T12:00:36.176Z,3.95
2019-05-26T12:03:02.963Z,3.52
2019-05-26T12:05:29.711Z,3.47
2019-05-26T12:07:56.442Z,3.52
2019-05-26T12:10:23.333Z,3.58
2019-05-26T12:12:50.348Z,3.77
2019-05-26T12:15:17.422Z,3.77
2019-05-26T12:17:44.124Z,3.20
2019-05-26T12:20:11.478Z,3.52
2019-05-26T12:22:38.401Z,3.42
2019-05-26T12:25:07.210Z,3.85
2019-05-26T12:27:33.981Z,3.50
2019-05-26T12:30:00.760Z,3.70
2019-05-26T12:32:27.569Z,3.45
2019-05-26T12:34:54.293Z,3.60
2019-05-26T12:37:21.182Z,3.50
2019-05-26T12:39:47.890Z,3.50
2019-05-26T12:42:17.008Z,3.80
2019-05-26T12:44:49.458Z,3.30
2019-05-26T12:47:12.975Z,3.35
2019-05-26T12:49:39.718Z,3.70
2019-05-26T12:52:06.848Z,3.80
2019-05-26T12:54:33.547Z,3.70
2019-05-26T12:57:00.335Z,3.67
2019-05-26T12:59:27.070Z,3.80
2019-05-26T13:01:53.789Z,4.12
2019-05-26T13:04:20.551Z,3.60
2019-05-26T13:06:47.242Z,4.35
2019-05-26T13:09:14.394Z,4.03
2019-05-26T13:11:41.172Z,3.87
2019-05-26T13:14:07.849Z,4.08
2019-05-26T13:16:35.910Z,3.47
2019-05-26T13:19:03.558Z,3.70
2019-05-26T13:21:30.279Z,3.85
2019-05-26T13:23:57.065Z,3.70
2019-05-26T13:26:23.875Z,3.90
2019-05-26T13:28:50.568Z,3.70
2019-05-26T13:31:17.330Z,3.80
2019-05-26T13:33:44.144Z,4.30
2019-05-26T13:36:10.844Z,3.42
2019-05-26T13:38:37.572Z,3.95
2019-05-26T13:41:04.331Z,3.85
2019-05-26T13:43:31.070Z,3.47
2019-05-26T13:45:57.814Z,3.58
2019-05-26T13:48:24.698Z,3.65
2019-05-26T13:50:51.507Z,3.95
2019-05-26T13:53:18.293Z,3.70
2019-05-26T13:55:45.092Z,3.72
2019-05-26T13:58:11.753Z,3.60
2019-05-26T14:00:38.440Z,3.62
2019-05-26T14:03:05.563Z,3.40
2019-05-26T14:05:32.332Z,3.87
2019-05-26T14:07:59.079Z,3.65
2019-05-26T14:10:31.325Z,3.60
2019-05-26T14:12:59.160Z,3.60
2019-05-26T14:15:37.178Z,3.58
2019-05-26T14:17:56.812Z,3.52
2019-05-26T14:20:27.263Z,3.72
2019-05-26T14:22:53.985Z,4.17
2019-05-26T14:25:20.742Z,3.87
2019-05-26T14:27:47.531Z,6.22
2019-05-26T14:30:14.391Z,4.78
2019-05-26T14:32:41.268Z,4.10
2019-05-26T14:35:08.285Z,3.65
2019-05-26T14:37:35.084Z,3.75
2019-05-26T14:40:02.726Z,4.03
2019-05-26T14:42:29.509Z,4.08
2019-05-26T14:44:56.323Z,3.80
2019-05-26T14:47:23.157Z,3.95
2019-05-26T14:49:49.874Z,3.80
2019-05-26T14:52:16.581Z,4.40
2019-05-26T14:54:43.330Z,4.37
2019-05-26T14:57:10.317Z,4.35
2019-05-26T14:59:37.108Z,4.30
2019-05-26T15:02:03.968Z,4.40
2019-05-26T15:04:31.303Z,4.70
2019-05-26T15:06:58.114Z,4.15
2019-05-26T15:09:25.623Z,4.45
2019-05-26T15:11:52.514Z,3.98
2019-05-26T15:14:19.294Z,4.15
2019-05-26T15:16:46.116Z,4.40
2019-05-26T15:19:12.838Z,4.37
2019-05-26T15:21:40.583Z,4.50
2019-05-26T15:24:07.350Z,4.33
2019-05-26T15:26:34.110Z,3.62
2019-05-26T15:29:00.940Z,4.28
2019-05-26T15:31:27.770Z,3.80
2019-05-26T15:33:54.480Z,3.77
2019-05-26T15:36:21.242Z,4.55
2019-05-26T15:38:48.111Z,3.50
2019-05-26T15:41:15.232Z,3.75
2019-05-26T15:43:41.955Z,3.70
2019-05-26T15:46:23.910Z,4.40
2019-05-26T15:48:38.782Z,4.00
2019-05-26T15:51:05.503Z,3.55
2019-05-26T15:53:32.806Z,4.05
2019-05-26T15:55:59.755Z,4.40
2019-05-26T15:58:26.549Z,4.28
2019-05-26T16:00:53.242Z,3.58
2019-05-26T16:03:20.172Z,3.77
2019-05-26T16:05:46.882Z,3.70
2019-05-26T16:08:13.651Z,3.55
2019-05-26T16:10:40.411Z,3.67
2019-05-26T16:13:07.121Z,3.60
2019-05-26T16:15:33.976Z,4.10
2019-05-26T16:18:00.667Z,3.72
2019-05-26T16:20:27.501Z,3.80
2019-05-26T16:22:54.287Z,4.30
2019-05-26T16:25:21.083Z,4.03
2019-05-26T16:27:47.998Z,4.15
2019-05-26T16:30:15.424Z,4.05
2019-05-26T16:32:42.213Z,4.03
2019-05-26T16:35:09.748Z,4.10
2019-05-26T16:37:36.551Z,4.62
2019-05-26T16:40:04.412Z,4.53
2019-05-26T16:42:31.188Z,4.33
2019-05-26T16:44:57.926Z,4.30
2019-05-26T16:47:24.599Z,4.50
2019-05-26T16:49:51.434Z,4.55
2019-05-26T16:52:18.192Z,4.40
2019-05-26T16:54:44.968Z,4.70
2019-05-26T16:57:11.664Z,4.72
2019-05-26T16:59:38.337Z,4.53
2019-05-26T17:02:06.752Z,5.00
2019-05-26T17:04:33.637Z,4.58
2019-05-26T17:07:00.475Z,4.80
2019-05-26T17:09:27.424Z,4.50
2019-05-26T17:11:54.125Z,4.78
2019-05-26T17:14:21.071Z,5.00
2019-05-26T17:16:47.882Z,5.25
2019-05-26T17:19:14.596Z,5.50
2019-05-26T17:21:41.381Z,5.05
2019-05-26T17:24:10.040Z,5.47
2019-05-26T17:26:36.838Z,4.85
2019-05-26T17:29:03.529Z,5.10
2019-05-26T17:31:30.441Z,5.80
2019-05-26T17:33:57.136Z,5.62
2019-05-26T17:36:24.003Z,5.40
2019-05-26T17:38:50.825Z,5.58
2019-05-26T17:41:17.532Z,5.80
2019-05-26T17:43:44.287Z,5.78
2019-05-26T17:46:11.084Z,6.10
2019-05-26T17:48:37.854Z,6.45
2019-05-26T17:51:04.863Z,6.20
2019-05-26T17:53:31.565Z,6.87
2019-05-26T17:55:58.257Z,7.30
2019-05-26T17:58:25.031Z,7.65
2019-05-26T18:00:51.809Z,7.28
2019-05-26T18:03:18.666Z,7.70
2019-05-26T18:05:45.515Z,8.58
2019-05-26T18:08:12.374Z,8.55
2019-05-26T18:10:39.152Z,8.45
2019-05-26T18:13:05.861Z,7.35
2019-05-26T18:15:32.627Z,8.68
2019-05-26T18:17:59.565Z,8.88
2019-05-26T18:20:26.451Z,7.47
2019-05-26T18:22:53.282Z,8.53
2019-05-26T18:25:20.153Z,8.03
2019-05-26T18:27:46.966Z,7.78
2019-05-26T18:30:14.270Z,9.08
2019-05-26T18:32:41.225Z,9.28
2019-05-26T18:35:08.382Z,9.60
2019-05-26T18:37:36.134Z,8.75
2019-05-26T18:40:04.708Z,8.75
2019-05-26T18:42:31.492Z,8.43
2019-05-26T18:44:58.249Z,9.10
2019-05-26T18:47:24.966Z,8.20
2019-05-26T18:49:51.809Z,8.48
2019-05-26T18:52:18.568Z,8.55
2019-05-26T18:54:45.335Z,7.60
2019-05-26T18:57:13.150Z,7.95
2019-05-26T18:59:40.056Z,7.47
2019-05-26T19:02:07.015Z,8.20
2019-05-26T19:04:33.732Z,7.65
2019-05-26T19:07:00.487Z,7.87
2019-05-26T19:09:27.244Z,8.10
2019-05-26T19:11:53.924Z,8.83
2019-05-26T19:14:20.636Z,9.08
2019-05-26T19:16:47.380Z,9.13
2019-05-26T19:19:14.153Z,8.00
2019-05-26T19:21:41.567Z,8.40
2019-05-26T19:24:08.406Z,8.63
2019-05-26T19:26:35.115Z,7.55
2019-05-26T19:29:02.093Z,7.80
2019-05-26T19:31:28.792Z,8.23
2019-05-26T19:33:55.594Z,8.15
2019-05-26T19:36:22.274Z,8.13
2019-05-26T19:38:49.119Z,8.28
2019-05-26T19:41:15.955Z,8.20
2019-05-26T19:43:42.968Z,8.00
2019-05-26T19:46:09.686Z,7.67
2019-05-26T19:48:37.340Z,9.25
2019-05-26T19:51:04.490Z,9.40
2019-05-26T19:53:31.344Z,9.30
2019-05-26T19:55:58.121Z,9.60
2019-05-26T19:58:28.426Z,8.73
2019-05-26T20:00:53.850Z,9.53
2019-05-26T20:03:20.868Z,8.90
2019-05-26T20:05:47.633Z,8.80
2019-05-26T20:08:14.531Z,8.80
2019-05-26T20:10:41.280Z,8.75
2019-05-26T20:13:08.185Z,8.95
2019-05-26T20:15:36.181Z,8.70
2019-05-26T20:18:03.459Z,8.80
2019-05-26T20:20:30.341Z,9.18
2019-05-26T20:22:57.146Z,7.87
2019-05-26T20:25:23.901Z,8.35
2019-05-26T20:27:50.679Z,8.55
2019-05-26T20:30:21.123Z,8.70
2019-05-26T20:32:46.179Z,8.20
2019-05-26T20:35:13.361Z,7.87
2019-05-26T20:37:40.327Z,8.28
2019-05-26T20:40:08.484Z,8.03
2019-05-26T20:42:35.457Z,8.13
2019-05-26T20:45:04.271Z,8.03
2019-05-26T20:47:31.085Z,7.85
2019-05-26T20:49:57.894Z,8.70
2019-05-26T20:52:24.666Z,8.53
2019-05-26T20:54:51.396Z,8.33
2019-05-26T20:57:18.287Z,7.92
2019-05-26T20:59:44.969Z,7.67
2019-05-26T21:02:11.685Z,8.10
2019-05-26T21:04:38.392Z,8.18
2019-05-26T21:07:05.316Z,8.13
2019-05-26T21:09:32.049Z,8.03
2019-05-26T21:11:58.865Z,8.00
2019-05-26T21:14:26.634Z,7.83
2019-05-26T21:16:53.569Z,8.78
2019-05-26T21:19:20.254Z,8.85
2019-05-26T21:21:47.025Z,8.30
2019-05-26T21:24:13.784Z,8.35
2019-05-26T21:26:40.538Z,8.90
2019-05-26T21:29:07.322Z,8.48
2019-05-26T21:31:34.083Z,8.40
2019-05-26T21:34:00.809Z,8.75
2019-05-26T21:36:27.652Z,8.65
2019-05-26T21:38:54.488Z,8.90
2019-05-26T21:41:21.232Z,8.85
2019-05-26T21:43:47.946Z,9.15
2019-05-26T21:46:14.846Z,9.28
2019-05-26T21:48:41.574Z,8.95
2019-05-26T21:51:08.244Z,8.58
2019-05-26T21:53:35.186Z,8.73
2019-05-26T21:56:01.904Z,8.88
2019-05-26T21:58:28.667Z,9.23
2019-05-26T22:00:55.754Z,8.68
2019-05-26T22:03:23.632Z,8.35
2019-05-26T22:05:50.446Z,8.58
2019-05-26T22:08:17.288Z,8.63
2019-05-26T22:10:44.118Z,8.60
2019-05-26T22:13:10.964Z,8.95
2019-05-26T22:15:37.686Z,8.95
2019-05-26T22:18:04.903Z,8.70
2019-05-26T22:20:31.746Z,9.55
2019-05-26T22:22:58.432Z,9.28
2019-05-26T22:25:25.165Z,9.18
2019-05-26T22:27:52.182Z,8.75
2019-05-26T22:30:19.174Z,9.23
2019-05-26T22:32:45.944Z,9.25
2019-05-26T22:35:12.773Z,9.15
2019-05-26T22:37:39.475Z,9.48
2019-05-26T22:40:06.685Z,9.13
2019-05-26T22:42:33.450Z,8.70
2019-05-26T22:45:00.229Z,9.05
2019-05-26T22:47:27.163Z,9.40
2019-05-26T22:49:55.940Z,9.48
2019-05-26T22:52:22.633Z,8.80
2019-05-26T22:54:49.409Z,8.40
2019-05-26T22:57:16.150Z,9.85
2019-05-26T22:59:42.868Z,9.40
2019-05-26T23:02:09.557Z,9.10
2019-05-26T23:04:36.296Z,8.90
2019-05-26T23:07:03.118Z,8.90
2019-05-26T23:09:29.813Z,9.45
2019-05-26T23:11:56.665Z,9.10
2019-05-26T23:14:23.439Z,9.43
2019-05-26T23:16:51.715Z,9.08
2019-05-26T23:19:20.070Z,9.10
2019-05-26T23:21:48.279Z,9.15
2019-05-26T23:24:15.029Z,9.00
2019-05-26T23:26:41.913Z,9.25
2019-05-26T23:29:08.718Z,9.55
2019-05-26T23:31:35.430Z,10.10
2019-05-26T23:34:02.126Z,8.95
2019-05-26T23:36:28.796Z,8.95
2019-05-26T23:38:55.594Z,9.45
2019-05-26T23:41:23.432Z,8.83
2019-05-26T23:43:50.221Z,8.73
2019-05-26T23:46:16.965Z,9.08
2019-05-26T23:48:44.300Z,9.20
2019-05-26T23:51:11.127Z,9.25
2019-05-26T23:53:37.951Z,8.98
2019-05-26T23:56:05.078Z,8.85
2019-05-26T23:58:31.943Z,9.43
